createdAt,value
2018-10-07T00:00:57.450Z,83.65
2018-10-07T00:02:18.441Z,83.85
2018-10-07T00:02:57.394Z,83.65
2018-10-07T00:03:57.380Z,84.23
2018-10-07T00:04:57.359Z,84.23
2018-10-07T00:05:57.333Z,84.14
2018-10-07T00:06:57.304Z,84.52
2018-10-07T00:08:18.288Z,84.71
2018-10-07T00:08:57.247Z,85.19
2018-10-07T00:09:57.229Z,84.91
2018-10-07T00:10:57.204Z,85.10
2018-10-07T00:11:57.171Z,85.48
2018-10-07T00:12:57.159Z,85.19
2018-10-07T00:14:18.137Z,85.58
2018-10-07T00:14:57.104Z,85.86
2018-10-07T00:15:57.080Z,85.58
2018-10-07T00:16:57.079Z,85.77
2018-10-07T00:17:57.033Z,85.77
2018-10-07T00:18:56.999Z,85.77
2018-10-07T00:20:17.979Z,85.67
2018-10-07T00:20:56.949Z,85.77
2018-10-07T00:21:56.924Z,85.58
2018-10-07T00:22:56.924Z,86.05
2018-10-07T00:23:56.878Z,86.05
2018-10-07T00:24:56.852Z,85.67
2018-10-07T00:26:17.838Z,85.48
2018-10-07T00:26:56.790Z,85.00
2018-10-07T00:27:56.784Z,85.48
2018-10-07T00:28:56.759Z,84.91
2018-10-07T00:29:56.712Z,85.28
2018-10-07T00:30:56.703Z,85.19
2018-10-07T00:32:17.682Z,84.23
2018-10-07T00:32:56.643Z,84.61
2018-10-07T00:33:56.631Z,85.19
2018-10-07T00:34:56.588Z,84.71
2018-10-07T00:35:56.570Z,84.71
2018-10-07T00:36:56.548Z,84.81
2018-10-07T00:38:17.528Z,85.19
2018-10-07T00:38:56.490Z,85.00
2018-10-07T00:39:56.480Z,85.19
2018-10-07T00:40:56.438Z,85.10
2018-10-07T00:41:56.418Z,84.91
2018-10-07T00:42:56.391Z,85.38
2018-10-07T00:44:17.368Z,84.52
2018-10-07T00:44:56.348Z,84.81
2018-10-07T00:45:56.315Z,84.91
2018-10-07T00:46:56.301Z,85.19
2018-10-07T00:47:56.271Z,84.52
2018-10-07T00:48:56.235Z,84.81
2018-10-07T00:50:17.215Z,84.52
2018-10-07T00:50:56.191Z,84.71
2018-10-07T00:51:56.156Z,84.61
2018-10-07T00:52:56.149Z,84.91
2018-10-07T00:53:56.107Z,84.28
2018-10-07T00:54:56.096Z,84.23
2018-10-07T00:56:17.066Z,84.77
2018-10-07T00:56:56.059Z,84.19
2018-10-07T00:57:56.020Z,84.19
2018-10-07T00:58:55.981Z,84.23
2018-10-07T00:59:55.960Z,84.48
2018-10-07T01:00:55.938Z,84.14
2018-10-07T01:02:16.902Z,84.04
2018-10-07T01:02:55.912Z,84.23
2018-10-07T01:03:55.859Z,84.23
2018-10-07T01:04:55.834Z,84.33
2018-10-07T01:05:55.825Z,84.81
2018-10-07T01:06:55.775Z,84.81
2018-10-07T01:08:16.760Z,84.48
2018-10-07T01:08:55.739Z,84.61
2018-10-07T01:09:55.707Z,84.09
2018-10-07T01:10:55.685Z,84.19
2018-10-07T01:11:55.676Z,83.04
2018-10-07T01:12:55.625Z,79.30
2018-10-07T01:14:16.605Z,77.48
2018-10-07T01:14:55.576Z,77.00
2018-10-07T01:15:55.547Z,77.48
2018-10-07T01:16:55.532Z,77.48
2018-10-07T01:17:55.517Z,75.95
2018-10-07T01:18:55.478Z,74.98
2018-10-07T01:20:16.450Z,76.14
2018-10-07T01:20:55.426Z,75.56
2018-10-07T01:21:55.402Z,76.81
2018-10-07T01:22:55.373Z,74.98
2018-10-07T01:23:55.350Z,75.18
2018-10-07T01:24:55.323Z,75.75
2018-10-07T01:26:16.287Z,76.71
2018-10-07T01:26:55.278Z,76.62
2018-10-07T01:27:55.240Z,76.81
2018-10-07T01:28:55.226Z,76.71
2018-10-07T01:29:55.194Z,75.65
2018-10-07T01:30:55.169Z,73.35
2018-10-07T01:32:16.149Z,74.22
2018-10-07T01:32:55.113Z,75.85
2018-10-07T01:33:55.091Z,74.51
2018-10-07T01:34:55.076Z,74.41
2018-10-07T01:35:55.045Z,72.97
2018-10-07T01:36:55.033Z,74.41
2018-10-07T01:38:15.997Z,75.08
2018-10-07T01:38:54.957Z,75.08
2018-10-07T01:39:54.957Z,76.14
2018-10-07T01:40:55.782Z,76.42
2018-10-07T01:41:54.885Z,76.23
2018-10-07T01:42:54.859Z,75.37
2018-10-07T01:44:15.838Z,75.65
2018-10-07T01:44:54.814Z,76.52
2018-10-07T01:45:54.812Z,75.37
2018-10-07T01:46:54.767Z,75.18
2018-10-07T01:47:54.738Z,76.04
2018-10-07T01:48:54.722Z,76.71
2018-10-07T01:50:15.677Z,76.32
2018-10-07T01:50:54.668Z,76.04
2018-10-07T01:51:54.640Z,76.14
2018-10-07T01:52:54.618Z,75.46
2018-10-07T01:53:54.583Z,75.14
2018-10-07T01:54:54.570Z,75.23
2018-10-07T01:56:15.526Z,75.33
2018-10-07T01:56:54.510Z,74.08
2018-10-07T01:57:54.486Z,75.14
2018-10-07T01:58:54.444Z,74.85
2018-10-07T01:59:54.426Z,75.04
2018-10-07T02:00:54.404Z,75.23
2018-10-07T02:02:15.373Z,75.14
2018-10-07T02:02:54.364Z,74.95
2018-10-07T02:03:54.330Z,75.71
2018-10-07T02:04:54.361Z,75.81
2018-10-07T02:05:54.287Z,75.43
2018-10-07T02:06:54.245Z,74.37
2018-10-07T02:08:15.229Z,74.18
2018-10-07T02:08:54.200Z,73.70
2018-10-07T02:09:54.166Z,74.57
2018-10-07T02:10:54.149Z,74.27
2018-10-07T02:11:54.113Z,73.90
2018-10-07T02:12:54.232Z,73.99
2018-10-07T02:14:15.063Z,74.08
2018-10-07T02:14:54.053Z,72.74
2018-10-07T02:15:54.011Z,72.74
2018-10-07T02:16:54.025Z,72.17
2018-10-07T02:17:53.975Z,71.40
2018-10-07T02:18:53.934Z,71.78
2018-10-07T02:20:14.953Z,71.59
2018-10-07T02:20:53.886Z,73.61
2018-10-07T02:21:53.857Z,74.18
2018-10-07T02:22:53.855Z,75.43
2018-10-07T02:23:53.806Z,75.62
2018-10-07T02:24:53.798Z,75.04
2018-10-07T02:26:14.758Z,74.95
2018-10-07T02:26:53.739Z,74.18
2018-10-07T02:27:53.707Z,74.85
2018-10-07T02:28:53.700Z,74.47
2018-10-07T02:29:53.666Z,74.27
2018-10-07T02:30:53.624Z,75.14
2018-10-07T02:32:14.614Z,75.52
2018-10-07T02:32:53.585Z,75.62
2018-10-07T02:33:53.550Z,76.00
2018-10-07T02:34:53.538Z,75.52
2018-10-07T02:35:53.509Z,75.81
2018-10-07T02:36:53.474Z,75.33
2018-10-07T02:38:14.464Z,76.00
2018-10-07T02:38:53.421Z,75.62
2018-10-07T02:39:53.401Z,75.43
2018-10-07T02:40:53.377Z,76.19
2018-10-07T02:41:53.346Z,75.14
2018-10-07T02:42:53.331Z,75.23
2018-10-07T02:44:14.294Z,75.33
2018-10-07T02:44:53.275Z,75.52
2018-10-07T02:45:53.247Z,75.43
2018-10-07T02:46:53.224Z,75.43
2018-10-07T02:47:53.191Z,75.04
2018-10-07T02:48:53.181Z,74.95
2018-10-07T02:50:14.145Z,75.23
2018-10-07T02:50:53.123Z,74.95
2018-10-07T02:51:53.102Z,74.95
2018-10-07T02:52:53.067Z,74.18
2018-10-07T02:53:53.040Z,74.08
2018-10-07T02:54:53.021Z,73.61
2018-10-07T02:56:13.981Z,74.47
2018-10-07T02:56:52.976Z,73.61
2018-10-07T02:57:52.946Z,74.18
2018-10-07T02:58:52.925Z,73.32
2018-10-07T02:59:52.884Z,73.38
2018-10-07T03:00:52.857Z,73.99
2018-10-07T03:02:13.843Z,73.28
2018-10-07T03:02:52.828Z,72.99
2018-10-07T03:03:52.795Z,72.94
2018-10-07T03:04:52.753Z,73.47
2018-10-07T03:05:52.736Z,72.45
2018-10-07T03:06:52.706Z,72.13
2018-10-07T03:08:13.678Z,72.23
2018-10-07T03:08:52.685Z,72.71
2018-10-07T03:09:52.637Z,72.90
2018-10-07T03:10:52.601Z,72.13
2018-10-07T03:11:52.587Z,71.98
2018-10-07T03:12:52.576Z,72.07
2018-10-07T03:14:13.521Z,72.13
2018-10-07T03:14:52.507Z,71.84
2018-10-07T03:15:52.470Z,72.03
2018-10-07T03:16:52.451Z,72.23
2018-10-07T03:17:52.425Z,71.66
2018-10-07T03:18:52.404Z,72.45
2018-10-07T03:20:13.378Z,72.80
2018-10-07T03:20:52.360Z,72.71
2018-10-07T03:21:52.328Z,73.09
2018-10-07T03:22:52.287Z,73.66
2018-10-07T03:23:52.268Z,73.76
2018-10-07T03:24:52.250Z,74.33
2018-10-07T03:26:13.212Z,75.01
2018-10-07T03:26:52.190Z,75.01
2018-10-07T03:27:52.163Z,75.87
2018-10-07T03:28:52.152Z,76.06
2018-10-07T03:29:52.114Z,75.96
2018-10-07T03:30:52.096Z,76.06
2018-10-07T03:32:13.064Z,76.73
2018-10-07T03:32:52.034Z,76.35
2018-10-07T03:33:52.013Z,76.54
2018-10-07T03:34:51.990Z,76.73
2018-10-07T03:35:51.971Z,76.06
2018-10-07T03:36:51.928Z,76.35
2018-10-07T03:38:12.911Z,76.25
2018-10-07T03:38:51.882Z,75.77
2018-10-07T03:39:51.850Z,75.48
2018-10-07T03:40:51.839Z,76.25
2018-10-07T03:41:51.805Z,75.48
2018-10-07T03:42:51.771Z,75.48
2018-10-07T03:44:12.761Z,75.01
2018-10-07T03:44:51.777Z,75.07
2018-10-07T03:45:51.719Z,74.20
2018-10-07T03:46:51.683Z,74.30
2018-10-07T03:47:51.646Z,74.77
2018-10-07T03:48:51.627Z,74.20
2018-10-07T03:50:12.591Z,73.72
2018-10-07T03:50:51.579Z,73.34
2018-10-07T03:51:51.547Z,72.58
2018-10-07T03:52:51.533Z,72.38
2018-10-07T03:53:51.500Z,72.38
2018-10-07T03:54:51.497Z,72.09
2018-10-07T03:56:12.448Z,72.48
2018-10-07T03:56:51.413Z,72.86
2018-10-07T03:57:51.402Z,72.48
2018-10-07T03:58:51.355Z,72.09
2018-10-07T03:59:51.339Z,72.19
2018-10-07T04:00:51.314Z,72.09
2018-10-07T04:02:12.283Z,72.48
2018-10-07T04:02:51.271Z,72.09
2018-10-07T04:03:51.254Z,71.91
2018-10-07T04:04:51.205Z,71.52
2018-10-07T04:05:51.172Z,71.01
2018-10-07T04:06:51.171Z,71.20
2018-10-07T04:08:12.130Z,70.05
2018-10-07T04:08:51.102Z,70.53
2018-10-07T04:09:51.087Z,69.57
2018-10-07T04:10:51.039Z,69.48
2018-10-07T04:11:51.021Z,68.71
2018-10-07T04:12:50.998Z,67.18
2018-10-07T04:14:11.972Z,66.89
2018-10-07T04:14:50.947Z,66.89
2018-10-07T04:15:50.917Z,66.70
2018-10-07T04:16:50.900Z,67.47
2018-10-07T04:17:50.866Z,67.76
2018-10-07T04:18:50.841Z,67.56
2018-10-07T04:20:11.861Z,67.56
2018-10-07T04:20:50.781Z,67.66
2018-10-07T04:21:50.772Z,67.76
2018-10-07T04:22:50.731Z,67.85
2018-10-07T04:23:50.717Z,67.85
2018-10-07T04:24:50.678Z,68.33
2018-10-07T04:26:11.647Z,68.52
2018-10-07T04:26:50.638Z,67.94
2018-10-07T04:27:50.601Z,67.76
2018-10-07T04:28:50.587Z,67.47
2018-10-07T04:29:50.557Z,67.24
2018-10-07T04:30:50.521Z,66.57
2018-10-07T04:32:11.528Z,66.57
2018-10-07T04:32:50.474Z,66.57
2018-10-07T04:33:50.454Z,66.96
2018-10-07T04:34:50.421Z,65.71
2018-10-07T04:35:50.397Z,65.61
2018-10-07T04:36:50.372Z,64.75
2018-10-07T04:38:11.349Z,63.60
2018-10-07T04:38:50.323Z,63.70
2018-10-07T04:39:50.332Z,63.80
2018-10-07T04:40:50.289Z,63.80
2018-10-07T04:41:50.238Z,63.99
2018-10-07T04:42:50.214Z,63.70
2018-10-07T04:44:11.205Z,63.23
2018-10-07T04:44:50.184Z,62.94
2018-10-07T04:45:50.161Z,62.84
2018-10-07T04:46:50.111Z,62.55
2018-10-07T04:47:50.082Z,61.22
2018-10-07T04:48:50.067Z,62.04
2018-10-07T04:50:11.050Z,63.00
2018-10-07T04:50:50.013Z,62.52
2018-10-07T04:51:50.111Z,62.81
2018-10-07T04:52:49.962Z,62.81
2018-10-07T04:53:49.946Z,63.48
2018-10-07T04:54:49.928Z,63.19
2018-10-07T04:56:11.023Z,64.62
2018-10-07T04:56:49.867Z,64.91
2018-10-07T04:57:50.018Z,66.35
2018-10-07T04:58:49.900Z,68.16
2018-10-07T04:59:49.856Z,67.78
2018-10-07T05:00:49.753Z,68.55
2018-10-07T05:02:10.740Z,68.26
2018-10-07T05:02:49.694Z,68.26
2018-10-07T05:03:49.666Z,68.84
2018-10-07T05:04:49.666Z,69.02
2018-10-07T05:05:49.651Z,69.02
2018-10-07T05:06:49.613Z,69.41
2018-10-07T05:08:10.576Z,69.12
2018-10-07T05:08:49.579Z,69.79
2018-10-07T05:09:49.513Z,70.27
2018-10-07T05:10:49.505Z,69.47
2018-10-07T05:11:49.460Z,68.93
2018-10-07T05:12:49.441Z,68.93
2018-10-07T05:14:10.404Z,68.04
2018-10-07T05:14:49.377Z,69.18
2018-10-07T05:15:49.364Z,69.02
2018-10-07T05:16:49.320Z,69.27
2018-10-07T05:17:49.305Z,69.76
2018-10-07T05:18:49.278Z,69.47
2018-10-07T05:20:10.237Z,69.27
2018-10-07T05:20:49.282Z,69.37
2018-10-07T05:21:49.181Z,69.27
2018-10-07T05:22:49.179Z,69.66
2018-10-07T05:23:49.153Z,70.04
2018-10-07T05:24:49.097Z,71.47
2018-10-07T05:26:10.086Z,72.53
2018-10-07T05:26:49.055Z,73.58
2018-10-07T05:27:49.025Z,74.05
2018-10-07T05:28:48.999Z,74.73
2018-10-07T05:29:48.991Z,75.01
2018-10-07T05:30:48.966Z,75.01
2018-10-07T05:32:09.924Z,76.06
2018-10-07T05:32:48.919Z,75.96
2018-10-07T05:33:48.885Z,75.78
2018-10-07T05:34:48.837Z,76.16
2018-10-07T05:35:48.821Z,76.64
2018-10-07T05:36:48.779Z,76.16
2018-10-07T05:38:09.766Z,76.64
2018-10-07T05:38:48.735Z,76.64
2018-10-07T05:39:48.699Z,77.11
2018-10-07T05:40:48.678Z,77.78
2018-10-07T05:41:48.673Z,77.01
2018-10-07T05:42:48.627Z,77.78
2018-10-07T05:44:09.659Z,78.74
2018-10-07T05:44:48.636Z,78.36
2018-10-07T05:45:48.554Z,79.88
2018-10-07T05:46:48.518Z,79.41
2018-10-07T05:47:48.513Z,80.07
2018-10-07T05:48:48.460Z,81.13
2018-10-07T05:50:09.446Z,80.07
2018-10-07T05:50:48.416Z,79.69
2018-10-07T05:51:48.392Z,79.69
2018-10-07T05:52:48.363Z,79.60
2018-10-07T05:53:48.343Z,79.12
2018-10-07T05:54:48.309Z,79.12
2018-10-07T05:56:09.323Z,80.07
2018-10-07T05:56:48.255Z,79.60
2018-10-07T05:57:48.239Z,80.07
2018-10-07T05:58:48.196Z,79.69
2018-10-07T05:59:48.187Z,80.36
2018-10-07T06:00:48.144Z,80.17
2018-10-07T06:02:09.203Z,80.84
2018-10-07T06:02:48.102Z,81.51
2018-10-07T06:03:48.080Z,81.89
2018-10-07T06:04:48.048Z,82.56
2018-10-07T06:05:48.016Z,82.28
2018-10-07T06:06:47.999Z,82.84
2018-10-07T06:08:08.966Z,83.42
2018-10-07T06:08:47.944Z,83.23
2018-10-07T06:09:47.932Z,83.42
2018-10-07T06:10:47.891Z,85.42
2018-10-07T06:11:47.855Z,85.90
2018-10-07T06:12:47.856Z,86.57
2018-10-07T06:14:08.797Z,87.05
2018-10-07T06:14:47.856Z,86.57
2018-10-07T06:15:47.760Z,87.24
2018-10-07T06:16:47.735Z,87.43
2018-10-07T06:17:47.708Z,87.15
2018-10-07T06:18:47.688Z,87.43
2018-10-07T06:20:08.652Z,88.68
2018-10-07T06:20:47.623Z,88.58
2018-10-07T06:21:47.610Z,88.20
2018-10-07T06:22:47.588Z,87.62
2018-10-07T06:23:47.533Z,87.53
2018-10-07T06:24:47.530Z,87.34
2018-10-07T06:26:08.498Z,87.53
2018-10-07T06:26:47.465Z,88.01
2018-10-07T06:27:47.460Z,88.10
2018-10-07T06:28:47.405Z,88.87
2018-10-07T06:29:47.437Z,87.72
2018-10-07T06:30:47.371Z,88.48
2018-10-07T06:32:08.428Z,87.62
2018-10-07T06:32:47.310Z,87.53
2018-10-07T06:33:47.279Z,87.53
2018-10-07T06:34:47.261Z,87.34
2018-10-07T06:35:47.228Z,87.62
2018-10-07T06:36:47.199Z,87.15
2018-10-07T06:38:08.169Z,87.34
2018-10-07T06:38:47.280Z,87.62
2018-10-07T06:39:47.169Z,87.62
2018-10-07T06:40:47.096Z,87.24
2018-10-07T06:41:47.087Z,87.72
2018-10-07T06:42:47.047Z,86.63
2018-10-07T06:44:08.191Z,87.05
2018-10-07T06:44:46.988Z,86.43
2018-10-07T06:45:46.977Z,86.82
2018-10-07T06:46:46.941Z,86.53
2018-10-07T06:47:46.909Z,87.34
2018-10-07T06:48:46.879Z,87.24
2018-10-07T06:50:07.864Z,87.82
2018-10-07T06:50:46.825Z,87.62
2018-10-07T06:51:46.827Z,88.06
2018-10-07T06:52:46.780Z,87.53
2018-10-07T06:53:46.749Z,86.82
2018-10-07T06:54:46.735Z,85.77
2018-10-07T06:56:07.689Z,85.77
2018-10-07T06:56:46.676Z,85.86
2018-10-07T06:57:46.649Z,86.43
2018-10-07T06:58:46.610Z,86.15
2018-10-07T06:59:46.600Z,86.05
2018-10-07T07:00:46.555Z,86.53
2018-10-07T07:02:07.534Z,86.34
2018-10-07T07:02:46.517Z,86.72
2018-10-07T07:03:46.497Z,86.72
2018-10-07T07:04:46.460Z,86.63
2018-10-07T07:05:46.433Z,87.58
2018-10-07T07:06:46.402Z,86.72
2018-10-07T07:08:07.374Z,87.20
2018-10-07T07:08:46.390Z,87.01
2018-10-07T07:09:46.327Z,87.53
2018-10-07T07:10:46.314Z,88.25
2018-10-07T07:11:46.280Z,88.58
2018-10-07T07:12:46.244Z,87.96
2018-10-07T07:14:07.223Z,88.54
2018-10-07T07:14:46.199Z,89.06
2018-10-07T07:15:46.163Z,88.96
2018-10-07T07:16:46.159Z,89.11
2018-10-07T07:17:46.117Z,88.44
2018-10-07T07:18:46.085Z,88.34
2018-10-07T07:20:07.096Z,87.87
2018-10-07T07:20:46.045Z,88.01
2018-10-07T07:21:46.014Z,89.06
2018-10-07T07:22:46.094Z,89.15
2018-10-07T07:23:45.970Z,88.29
2018-10-07T07:24:45.920Z,88.58
2018-10-07T07:26:06.902Z,89.06
2018-10-07T07:26:45.881Z,89.63
2018-10-07T07:27:45.856Z,89.53
2018-10-07T07:28:45.835Z,89.53
2018-10-07T07:29:45.805Z,89.63
2018-10-07T07:30:45.771Z,89.82
2018-10-07T07:32:06.740Z,89.73
2018-10-07T07:32:45.726Z,90.01
2018-10-07T07:33:45.696Z,90.78
2018-10-07T07:34:45.654Z,90.78
2018-10-07T07:35:45.633Z,91.83
2018-10-07T07:36:45.621Z,91.54
2018-10-07T07:38:06.580Z,91.64
2018-10-07T07:38:45.564Z,92.02
2018-10-07T07:39:45.532Z,91.64
2018-10-07T07:40:45.504Z,91.54
2018-10-07T07:41:45.485Z,92.21
2018-10-07T07:42:45.444Z,92.21
2018-10-07T07:44:06.492Z,92.88
2018-10-07T07:44:45.400Z,92.30
2018-10-07T07:45:45.562Z,92.07
2018-10-07T07:46:45.353Z,92.25
2018-10-07T07:47:45.319Z,91.78
2018-10-07T07:48:45.291Z,91.68
2018-10-07T07:50:06.268Z,91.45
2018-10-07T07:50:45.264Z,92.40
2018-10-07T07:51:45.221Z,91.64
2018-10-07T07:52:45.200Z,92.16
2018-10-07T07:53:45.190Z,91.68
2018-10-07T07:54:45.143Z,92.07
2018-10-07T07:56:06.114Z,92.16
2018-10-07T07:56:45.101Z,92.07
2018-10-07T07:57:45.057Z,92.25
2018-10-07T07:58:45.038Z,92.16
2018-10-07T07:59:44.997Z,91.97
2018-10-07T08:00:44.987Z,91.88
2018-10-07T08:02:05.957Z,92.07
2018-10-07T08:02:44.944Z,92.35
2018-10-07T08:03:44.900Z,91.39
2018-10-07T08:04:44.865Z,91.78
2018-10-07T08:05:44.860Z,92.07
2018-10-07T08:06:44.821Z,92.35
2018-10-07T08:08:05.791Z,92.45
2018-10-07T08:08:44.841Z,91.49
2018-10-07T08:09:44.742Z,91.97
2018-10-07T08:10:44.712Z,92.16
2018-10-07T08:11:44.711Z,92.54
2018-10-07T08:12:44.662Z,92.35
2018-10-07T08:14:05.642Z,93.12
2018-10-07T08:14:44.613Z,92.93
2018-10-07T08:15:44.591Z,92.30
2018-10-07T08:16:44.554Z,92.40
2018-10-07T08:17:44.566Z,92.21
2018-10-07T08:18:44.501Z,92.88
2018-10-07T08:20:05.478Z,93.07
2018-10-07T08:20:44.459Z,93.35
2018-10-07T08:21:44.425Z,93.26
2018-10-07T08:22:44.406Z,93.26
2018-10-07T08:23:44.370Z,93.35
2018-10-07T08:24:44.357Z,93.74
2018-10-07T08:26:05.320Z,93.55
2018-10-07T08:26:44.301Z,93.64
2018-10-07T08:27:44.267Z,93.93
2018-10-07T08:28:44.243Z,94.12
2018-10-07T08:29:44.296Z,94.41
2018-10-07T08:30:44.203Z,95.84
2018-10-07T08:32:05.159Z,95.36
2018-10-07T08:32:44.150Z,95.84
2018-10-07T08:33:44.119Z,95.17
2018-10-07T08:34:44.080Z,95.56
2018-10-07T08:35:44.059Z,95.46
2018-10-07T08:36:44.027Z,95.56
2018-10-07T08:38:05.003Z,95.65
2018-10-07T08:38:43.986Z,95.75
2018-10-07T08:39:43.949Z,95.46
2018-10-07T08:40:43.933Z,95.07
2018-10-07T08:41:43.896Z,95.17
2018-10-07T08:42:43.893Z,94.60
2018-10-07T08:44:04.848Z,94.60
2018-10-07T08:44:43.831Z,94.17
2018-10-07T08:45:43.805Z,94.17
2018-10-07T08:46:43.762Z,93.79
2018-10-07T08:47:43.760Z,94.55
2018-10-07T08:48:43.721Z,94.55
2018-10-07T08:50:04.695Z,94.55
2018-10-07T08:50:43.673Z,95.03
2018-10-07T08:51:43.641Z,94.74
2018-10-07T08:52:43.614Z,95.12
2018-10-07T08:53:43.589Z,95.51
2018-10-07T08:54:43.562Z,95.12
2018-10-07T08:56:04.621Z,94.65
2018-10-07T08:56:43.514Z,94.93
2018-10-07T08:57:43.480Z,95.12
2018-10-07T08:58:43.456Z,95.12
2018-10-07T08:59:43.437Z,95.22
2018-10-07T09:00:43.412Z,94.65
2018-10-07T09:02:04.385Z,93.79
2018-10-07T09:02:43.376Z,94.36
2018-10-07T09:03:43.327Z,94.36
2018-10-07T09:04:43.302Z,94.93
2018-10-07T09:05:43.278Z,94.46
2018-10-07T09:06:43.247Z,95.03
2018-10-07T09:08:04.219Z,94.74
2018-10-07T09:08:43.211Z,95.22
2018-10-07T09:09:43.165Z,95.22
2018-10-07T09:10:43.142Z,95.12
2018-10-07T09:11:43.126Z,94.93
2018-10-07T09:12:43.081Z,94.46
2018-10-07T09:14:04.065Z,93.79
2018-10-07T09:14:43.117Z,93.21
2018-10-07T09:15:43.006Z,92.93
2018-10-07T09:16:42.994Z,92.93
2018-10-07T09:17:42.965Z,92.74
2018-10-07T09:18:42.928Z,92.93
2018-10-07T09:20:03.905Z,93.02
2018-10-07T09:20:42.875Z,93.40
2018-10-07T09:21:43.435Z,93.02
2018-10-07T09:22:42.827Z,92.74
2018-10-07T09:23:42.800Z,92.93
2018-10-07T09:24:42.772Z,93.02
2018-10-07T09:26:03.738Z,92.74
2018-10-07T09:26:42.741Z,92.83
2018-10-07T09:27:42.691Z,92.83
2018-10-07T09:28:42.674Z,93.50
2018-10-07T09:29:42.642Z,92.83
2018-10-07T09:30:42.621Z,93.12
2018-10-07T09:32:03.605Z,92.93
2018-10-07T09:32:42.606Z,92.64
2018-10-07T09:33:42.542Z,92.45
2018-10-07T09:34:42.531Z,91.68
2018-10-07T09:35:42.475Z,92.07
2018-10-07T09:36:42.577Z,91.88
2018-10-07T09:38:03.432Z,92.45
2018-10-07T09:38:42.398Z,92.25
2018-10-07T09:39:42.397Z,92.54
2018-10-07T09:40:42.345Z,92.83
2018-10-07T09:41:42.324Z,91.59
2018-10-07T09:42:42.307Z,90.63
2018-10-07T09:44:03.293Z,90.82
2018-10-07T09:44:42.250Z,91.20
2018-10-07T09:45:42.215Z,91.97
2018-10-07T09:46:42.207Z,92.64
2018-10-07T09:47:42.159Z,92.35
2018-10-07T09:48:42.149Z,93.12
2018-10-07T09:50:03.115Z,92.83
2018-10-07T09:50:42.091Z,92.45
2018-10-07T09:51:42.060Z,92.74
2018-10-07T09:52:42.040Z,93.02
2018-10-07T09:53:42.003Z,92.54
2018-10-07T09:54:41.983Z,93.31
2018-10-07T09:56:02.949Z,93.12
2018-10-07T09:56:41.937Z,92.64
2018-10-07T09:57:41.905Z,92.25
2018-10-07T09:58:41.877Z,92.64
2018-10-07T09:59:41.844Z,92.45
2018-10-07T10:00:41.832Z,92.45
2018-10-07T10:02:02.794Z,91.68
2018-10-07T10:02:41.773Z,90.53
2018-10-07T10:03:41.757Z,90.06
2018-10-07T10:04:41.790Z,91.02
2018-10-07T10:05:41.691Z,91.11
2018-10-07T10:06:41.672Z,91.20
2018-10-07T10:08:02.641Z,91.78
2018-10-07T10:08:41.622Z,90.53
2018-10-07T10:09:41.595Z,88.53
2018-10-07T10:10:41.590Z,87.66
2018-10-07T10:11:41.545Z,87.62
2018-10-07T10:12:41.511Z,88.81
2018-10-07T10:14:02.569Z,88.34
2018-10-07T10:14:41.462Z,89.29
2018-10-07T10:15:41.436Z,89.58
2018-10-07T10:16:41.399Z,89.58
2018-10-07T10:17:41.445Z,89.77
2018-10-07T10:18:41.352Z,89.20
2018-10-07T10:20:02.429Z,89.48
2018-10-07T10:20:41.309Z,90.06
2018-10-07T10:21:41.282Z,90.16
2018-10-07T10:22:41.251Z,89.05
2018-10-07T10:23:41.231Z,88.91
2018-10-07T10:24:41.192Z,88.53
2018-10-07T10:26:02.156Z,88.09
2018-10-07T10:26:41.151Z,88.15
2018-10-07T10:27:41.107Z,87.48
2018-10-07T10:28:41.102Z,87.62
2018-10-07T10:29:41.051Z,87.62
2018-10-07T10:30:41.044Z,88.00
2018-10-07T10:32:02.882Z,88.19
2018-10-07T10:32:41.000Z,87.81
2018-10-07T10:33:40.967Z,85.89
2018-10-07T10:34:40.923Z,86.37
2018-10-07T10:35:40.912Z,87.04
2018-10-07T10:36:40.906Z,87.23
2018-10-07T10:38:01.852Z,85.80
2018-10-07T10:38:40.823Z,87.14
2018-10-07T10:39:40.887Z,85.99
2018-10-07T10:40:40.782Z,86.18
2018-10-07T10:41:40.747Z,85.80
2018-10-07T10:42:40.723Z,85.80
2018-10-07T10:44:01.706Z,85.99
2018-10-07T10:44:40.671Z,86.85
2018-10-07T10:45:40.652Z,86.28
2018-10-07T10:46:40.612Z,86.66
2018-10-07T10:47:40.600Z,86.18
2018-10-07T10:48:40.709Z,85.41
2018-10-07T10:50:01.529Z,85.22
2018-10-07T10:50:40.520Z,84.65
2018-10-07T10:51:40.478Z,84.75
2018-10-07T10:52:40.466Z,83.98
2018-10-07T10:53:40.441Z,85.03
2018-10-07T10:54:40.400Z,84.27
2018-10-07T10:56:01.390Z,84.84
2018-10-07T10:56:40.357Z,84.75
2018-10-07T10:57:40.324Z,85.03
2018-10-07T10:58:40.311Z,84.27
2018-10-07T10:59:40.281Z,84.46
2018-10-07T11:00:40.255Z,84.36
2018-10-07T11:02:01.220Z,84.65
2018-10-07T11:02:40.215Z,85.41
2018-10-07T11:03:40.165Z,85.03
2018-10-07T11:04:40.246Z,84.84
2018-10-07T11:05:40.139Z,85.03
2018-10-07T11:06:40.085Z,85.13
2018-10-07T11:08:01.075Z,82.83
2018-10-07T11:08:40.053Z,82.74
2018-10-07T11:09:40.019Z,82.45
2018-10-07T11:10:39.991Z,82.93
2018-10-07T11:11:39.966Z,80.35
2018-10-07T11:12:39.944Z,80.35
2018-10-07T11:14:01.011Z,79.39
2018-10-07T11:14:39.907Z,78.72
2018-10-07T11:15:39.929Z,79.00
2018-10-07T11:16:39.837Z,79.58
2018-10-07T11:17:39.802Z,79.49
2018-10-07T11:18:39.782Z,77.00
2018-10-07T11:20:00.763Z,77.95
2018-10-07T11:20:39.723Z,77.95
2018-10-07T11:21:39.706Z,78.14
2018-10-07T11:22:39.965Z,77.48
2018-10-07T11:23:39.722Z,77.09
2018-10-07T11:24:39.631Z,77.38
2018-10-07T11:26:00.636Z,78.81
2018-10-07T11:26:39.574Z,78.81
2018-10-07T11:27:39.543Z,78.63
2018-10-07T11:28:39.519Z,78.34
2018-10-07T11:29:39.497Z,78.43
2018-10-07T11:30:39.474Z,77.76
2018-10-07T11:32:00.433Z,76.81
2018-10-07T11:32:39.421Z,77.09
2018-10-07T11:33:39.440Z,77.67
2018-10-07T11:34:39.402Z,78.24
2018-10-07T11:35:39.337Z,77.28
2018-10-07T11:36:39.371Z,77.48
2018-10-07T11:38:00.291Z,78.14
2018-10-07T11:38:39.251Z,77.42
2018-10-07T11:39:39.246Z,78.57
2018-10-07T11:40:39.242Z,79.24
2018-10-07T11:41:39.179Z,77.48
2018-10-07T11:42:39.168Z,77.76
2018-10-07T11:44:00.130Z,78.66
2018-10-07T11:44:39.100Z,78.34
2018-10-07T11:45:39.073Z,78.43
2018-10-07T11:46:39.041Z,78.57
2018-10-07T11:47:39.025Z,79.43
2018-10-07T11:48:38.989Z,80.19
2018-10-07T11:49:59.977Z,80.67
2018-10-07T11:50:38.943Z,80.96
2018-10-07T11:51:38.925Z,81.15
2018-10-07T11:52:38.928Z,80.38
2018-10-07T11:53:38.858Z,80.19
2018-10-07T11:54:38.865Z,79.05
2018-10-07T11:55:59.807Z,78.28
2018-10-07T11:56:38.795Z,79.43
2018-10-07T11:57:38.796Z,79.33
2018-10-07T11:58:38.737Z,79.43
2018-10-07T11:59:38.710Z,78.66
2018-10-07T12:00:38.685Z,76.75
2018-10-07T12:01:59.655Z,77.23
2018-10-07T12:02:38.676Z,77.04
2018-10-07T12:03:38.604Z,77.33
2018-10-07T12:04:38.575Z,77.13
2018-10-07T12:05:38.544Z,76.27
2018-10-07T12:06:38.537Z,76.46
2018-10-07T12:07:59.491Z,77.23
2018-10-07T12:08:38.519Z,76.94
2018-10-07T12:09:38.454Z,76.94
2018-10-07T12:10:38.419Z,76.08
2018-10-07T12:11:38.405Z,75.22
2018-10-07T12:12:38.361Z,76.27
2018-10-07T12:13:59.335Z,75.89
2018-10-07T12:14:38.330Z,76.08
2018-10-07T12:15:38.297Z,76.08
2018-10-07T12:16:38.263Z,76.65
2018-10-07T12:17:38.247Z,76.46
2018-10-07T12:18:38.208Z,76.18
2018-10-07T12:19:59.184Z,77.04
2018-10-07T12:20:38.165Z,76.46
2018-10-07T12:21:38.181Z,77.04
2018-10-07T12:22:38.109Z,77.04
2018-10-07T12:23:38.096Z,76.94
2018-10-07T12:24:38.050Z,77.08
2018-10-07T12:25:59.029Z,76.84
2018-10-07T12:26:38.006Z,76.40
2018-10-07T12:27:38.024Z,75.70
2018-10-07T12:28:37.973Z,76.02
2018-10-07T12:29:37.923Z,75.64
2018-10-07T12:30:37.907Z,75.60
2018-10-07T12:31:58.885Z,74.11
2018-10-07T12:32:37.851Z,74.01
2018-10-07T12:33:37.818Z,74.40
2018-10-07T12:34:37.829Z,75.16
2018-10-07T12:35:37.769Z,74.20
2018-10-07T12:36:37.751Z,74.49
2018-10-07T12:37:58.726Z,73.05
2018-10-07T12:38:37.692Z,73.72
2018-10-07T12:39:37.663Z,73.72
2018-10-07T12:40:37.652Z,74.77
2018-10-07T12:41:37.607Z,74.40
2018-10-07T12:42:37.613Z,74.20
2018-10-07T12:43:58.573Z,73.72
2018-10-07T12:44:37.536Z,72.86
2018-10-07T12:45:37.513Z,72.38
2018-10-07T12:46:37.476Z,72.67
2018-10-07T12:47:37.467Z,72.29
2018-10-07T12:48:37.424Z,74.01
2018-10-07T12:49:58.414Z,73.72
2018-10-07T12:50:37.381Z,74.01
2018-10-07T12:51:37.433Z,72.67
2018-10-07T12:52:37.328Z,72.29